sensor_id;sensor_type;location;lat;lon;timestamp;P1;durP1;ratioP1;P2;durP2;ratioP2
80400;SDS011;69727;53.132;8.230;2024-01-10T00:44:02;24.10;;;10.25;;
80400;SDS011;69727;53.132;8.230;2024-01-10T00:46:27;21.20;;;10.27;;
80400;SDS011;69727;53.132;8.230;2024-01-10T00:48:53;22.67;;;10.20;;
80400;SDS011;69727;53.132;8.230;2024-01-10T00:51:29;22.02;;;10.80;;
80400;SDS011;69727;53.132;8.230;2024-01-10T00:53:57;21.35;;;10.18;;
80400;SDS011;69727;53.132;8.230;2024-01-10T00:56:25;23.33;;;10.88;;
80400;SDS011;69727;53.132;8.230;2024-01-10T00:59:03;24.90;;;10.65;;
80400;SDS011;69727;53.132;8.230;2024-01-10T01:01:39;22.80;;;10.10;;
80400;SDS011;69727;53.132;8.230;2024-01-10T01:04:05;21.00;;;10.32;;
80400;SDS011;69727;53.132;8.230;2024-01-10T01:06:31;20.58;;;10.13;;
80400;SDS011;69727;53.132;8.230;2024-01-10T01:08:57;23.08;;;11.10;;
80400;SDS011;69727;53.132;8.230;2024-01-10T01:11:30;20.85;;;10.40;;
80400;SDS011;69727;53.132;8.230;2024-01-10T01:14:08;25.15;;;10.77;;
80400;SDS011;69727;53.132;8.230;2024-01-10T01:16:36;23.40;;;10.48;;
80400;SDS011;69727;53.132;8.230;2024-01-10T01:19:02;20.83;;;9.35;;
80400;SDS011;69727;53.132;8.230;2024-01-10T01:21:29;22.77;;;10.65;;
80400;SDS011;69727;53.132;8.230;2024-01-10T01:23:55;24.33;;;10.23;;
80400;SDS011;69727;53.132;8.230;2024-01-10T01:26:20;22.10;;;9.98;;
80400;SDS011;69727;53.132;8.230;2024-01-10T01:28:46;23.45;;;11.05;;
80400;SDS011;69727;53.132;8.230;2024-01-10T01:31:11;23.65;;;11.68;;
80400;SDS011;69727;53.132;8.230;2024-01-10T01:33:37;22.92;;;10.70;;
80400;SDS011;69727;53.132;8.230;2024-01-10T01:36:04;20.45;;;10.25;;
80400;SDS011;69727;53.132;8.230;2024-01-10T01:38:30;25.15;;;11.18;;
80400;SDS011;69727;53.132;8.230;2024-01-10T01:40:56;26.92;;;11.38;;
80400;SDS011;69727;53.132;8.230;2024-01-10T01:43:25;23.35;;;10.25;;
80400;SDS011;69727;53.132;8.230;2024-01-10T01:45:54;23.45;;;10.93;;
80400;SDS011;69727;53.132;8.230;2024-01-10T01:50:47;19.65;;;10.02;;
80400;SDS011;69727;53.132;8.230;2024-01-10T01:53:15;25.50;;;10.68;;
80400;SDS011;69727;53.132;8.230;2024-01-10T01:55:43;24.58;;;11.50;;
80400;SDS011;69727;53.132;8.230;2024-01-10T01:58:09;23.65;;;12.13;;
80400;SDS011;69727;53.132;8.230;2024-01-10T02:00:36;24.23;;;10.65;;
80400;SDS011;69727;53.132;8.230;2024-01-10T02:03:03;21.33;;;11.48;;
80400;SDS011;69727;53.132;8.230;2024-01-10T02:05:33;22.55;;;10.90;;
80400;SDS011;69727;53.132;8.230;2024-01-10T02:07:58;25.08;;;10.98;;
80400;SDS011;69727;53.132;8.230;2024-01-10T02:10:24;23.80;;;11.18;;
80400;SDS011;69727;53.132;8.230;2024-01-10T02:12:49;21.42;;;11.20;;
80400;SDS011;69727;53.132;8.230;2024-01-10T02:15:15;22.58;;;10.75;;
80400;SDS011;69727;53.132;8.230;2024-01-10T02:17:42;23.70;;;12.07;;
80400;SDS011;69727;53.132;8.230;2024-01-10T02:20:09;25.42;;;12.32;;
80400;SDS011;69727;53.132;8.230;2024-01-10T02:23:07;26.48;;;12.30;;
80400;SDS011;69727;53.132;8.230;2024-01-10T02:26:35;22.02;;;10.50;;
80400;SDS011;69727;53.132;8.230;2024-01-10T02:33:33;26.95;;;10.95;;
80400;SDS011;69727;53.132;8.230;2024-01-10T02:36:56;24.48;;;11.25;;
80400;SDS011;69727;53.132;8.230;2024-01-10T02:40:11;24.50;;;10.90;;
80400;SDS011;69727;53.132;8.230;2024-01-10T02:54:03;21.05;;;11.10;;
80400;SDS011;69727;53.132;8.230;2024-01-10T02:56:53;24.25;;;11.35;;
80400;SDS011;69727;53.132;8.230;2024-01-10T03:00:18;21.88;;;10.25;;
80400;SDS011;69727;53.132;8.230;2024-01-10T03:03:01;19.83;;;10.30;;
80400;SDS011;69727;53.132;8.230;2024-01-10T03:05:58;24.08;;;11.40;;
80400;SDS011;69727;53.132;8.230;2024-01-10T03:09:15;19.48;;;10.30;;
80400;SDS011;69727;53.132;8.230;2024-01-10T03:18:45;20.75;;;11.13;;
80400;SDS011;69727;53.132;8.230;2024-01-10T03:35:16;23.95;;;11.57;;
80400;SDS011;69727;53.132;8.230;2024-01-10T03:37:49;26.45;;;11.90;;
80400;SDS011;69727;53.132;8.230;2024-01-10T03:46:58;23.55;;;11.25;;
80400;SDS011;69727;53.132;8.230;2024-01-10T04:03:47;23.25;;;11.93;;
80400;SDS011;69727;53.132;8.230;2024-01-10T04:07:42;23.10;;;11.32;;
80400;SDS011;69727;53.132;8.230;2024-01-10T04:13:41;25.55;;;11.65;;
80400;SDS011;69727;53.132;8.230;2024-01-10T04:19:55;24.33;;;11.85;;
80400;SDS011;69727;53.132;8.230;2024-01-10T04:25:44;31.73;;;13.68;;
80400;SDS011;69727;53.132;8.230;2024-01-10T04:28:21;29.80;;;13.57;;
80400;SDS011;69727;53.132;8.230;2024-01-10T04:35:03;29.95;;;11.88;;
80400;SDS011;69727;53.132;8.230;2024-01-10T04:38:45;29.52;;;13.68;;
80400;SDS011;69727;53.132;8.230;2024-01-10T04:41:13;31.40;;;14.27;;
80400;SDS011;69727;53.132;8.230;2024-01-10T04:44:09;34.80;;;13.80;;
80400;SDS011;69727;53.132;8.230;2024-01-10T04:50:54;29.25;;;12.57;;
80400;SDS011;69727;53.132;8.230;2024-01-10T04:53:26;27.70;;;12.95;;
80400;SDS011;69727;53.132;8.230;2024-01-10T04:59:18;31.77;;;12.25;;
80400;SDS011;69727;53.132;8.230;2024-01-10T05:02:01;27.30;;;12.77;;
80400;SDS011;69727;53.132;8.230;2024-01-10T05:11:45;29.30;;;13.27;;
80400;SDS011;69727;53.132;8.230;2024-01-10T05:14:16;32.47;;;14.35;;
80400;SDS011;69727;53.132;8.230;2024-01-10T05:20:16;30.15;;;12.45;;
80400;SDS011;69727;53.132;8.230;2024-01-10T05:25:44;31.90;;;12.68;;
80400;SDS011;69727;53.132;8.230;2024-01-10T05:32:54;27.95;;;12.23;;
80400;SDS011;69727;53.132;8.230;2024-01-10T05:36:37;29.02;;;10.85;;
80400;SDS011;69727;53.132;8.230;2024-01-10T05:42:54;36.35;;;12.90;;
80400;SDS011;69727;53.132;8.230;2024-01-10T05:45:26;29.60;;;11.73;;
80400;SDS011;69727;53.132;8.230;2024-01-10T05:47:56;32.58;;;13.05;;
80400;SDS011;69727;53.132;8.230;2024-01-10T05:50:22;26.67;;;11.88;;
80400;SDS011;69727;53.132;8.230;2024-01-10T05:53:30;30.55;;;13.02;;
80400;SDS011;69727;53.132;8.230;2024-01-10T06:10:07;36.33;;;15.40;;
80400;SDS011;69727;53.132;8.230;2024-01-10T06:22:56;27.55;;;11.95;;
80400;SDS011;69727;53.132;8.230;2024-01-10T06:26:23;29.63;;;12.20;;
80400;SDS011;69727;53.132;8.230;2024-01-10T06:33:23;30.45;;;12.88;;
80400;SDS011;69727;53.132;8.230;2024-01-10T06:36:59;31.67;;;11.73;;
80400;SDS011;69727;53.132;8.230;2024-01-10T06:49:06;29.02;;;11.25;;
80400;SDS011;69727;53.132;8.230;2024-01-10T06:51:32;29.38;;;10.48;;
80400;SDS011;69727;53.132;8.230;2024-01-10T06:53:58;30.20;;;11.10;;
80400;SDS011;69727;53.132;8.230;2024-01-10T06:56:29;31.52;;;11.45;;
80400;SDS011;69727;53.132;8.230;2024-01-10T06:58:57;35.15;;;12.20;;
80400;SDS011;69727;53.132;8.230;2024-01-10T07:01:23;28.52;;;11.50;;
80400;SDS011;69727;53.132;8.230;2024-01-10T07:03:49;25.33;;;10.80;;
80400;SDS011;69727;53.132;8.230;2024-01-10T07:06:14;31.92;;;11.13;;
80400;SDS011;69727;53.132;8.230;2024-01-10T07:12:07;24.92;;;10.38;;
80400;SDS011;69727;53.132;8.230;2024-01-10T07:18:55;29.50;;;11.32;;
80400;SDS011;69727;53.132;8.230;2024-01-10T07:34:42;35.47;;;12.30;;
80400;SDS011;69727;53.132;8.230;2024-01-10T07:37:09;28.50;;;9.98;;
80400;SDS011;69727;53.132;8.230;2024-01-10T07:39:36;31.15;;;11.73;;
80400;SDS011;69727;53.132;8.230;2024-01-10T07:42:03;34.92;;;11.25;;
80400;SDS011;69727;53.132;8.230;2024-01-10T07:44:28;31.80;;;10.60;;
80400;SDS011;69727;53.132;8.230;2024-01-10T07:46:54;26.67;;;10.32;;
80400;SDS011;69727;53.132;8.230;2024-01-10T07:49:20;25.60;;;10.95;;
80400;SDS011;69727;53.132;8.230;2024-01-10T07:51:46;32.13;;;12.30;;
80400;SDS011;69727;53.132;8.230;2024-01-10T07:54:12;30.35;;;11.07;;
80400;SDS011;69727;53.132;8.230;2024-01-10T07:56:38;35.28;;;12.32;;
80400;SDS011;69727;53.132;8.230;2024-01-10T07:59:04;32.05;;;12.30;;
80400;SDS011;69727;53.132;8.230;2024-01-10T08:01:30;34.53;;;10.35;;
80400;SDS011;69727;53.132;8.230;2024-01-10T08:03:56;30.85;;;11.05;;
80400;SDS011;69727;53.132;8.230;2024-01-10T08:06:21;29.00;;;10.70;;
80400;SDS011;69727;53.132;8.230;2024-01-10T08:08:46;27.55;;;11.68;;
80400;SDS011;69727;53.132;8.230;2024-01-10T08:11:12;30.65;;;11.25;;
80400;SDS011;69727;53.132;8.230;2024-01-10T08:13:37;36.88;;;11.25;;
80400;SDS011;69727;53.132;8.230;2024-01-10T08:16:03;37.33;;;11.93;;
80400;SDS011;69727;53.132;8.230;2024-01-10T08:18:34;28.95;;;10.88;;
80400;SDS011;69727;53.132;8.230;2024-01-10T08:21:02;31.92;;;11.30;;
80400;SDS011;69727;53.132;8.230;2024-01-10T08:23:29;29.98;;;12.52;;
80400;SDS011;69727;53.132;8.230;2024-01-10T08:25:54;27.52;;;12.82;;
80400;SDS011;69727;53.132;8.230;2024-01-10T08:28:20;28.00;;;11.40;;
80400;SDS011;69727;53.132;8.230;2024-01-10T08:30:46;31.08;;;12.13;;
80400;SDS011;69727;53.132;8.230;2024-01-10T08:33:11;26.27;;;10.88;;
80400;SDS011;69727;53.132;8.230;2024-01-10T08:35:37;29.60;;;11.57;;
80400;SDS011;69727;53.132;8.230;2024-01-10T08:38:04;31.45;;;12.07;;
80400;SDS011;69727;53.132;8.230;2024-01-10T08:40:32;27.17;;;10.77;;
80400;SDS011;69727;53.132;8.230;2024-01-10T08:42:58;31.80;;;11.00;;
80400;SDS011;69727;53.132;8.230;2024-01-10T08:45:23;29.55;;;10.68;;
80400;SDS011;69727;53.132;8.230;2024-01-10T08:47:49;29.67;;;10.95;;
80400;SDS011;69727;53.132;8.230;2024-01-10T08:50:15;29.70;;;11.35;;
80400;SDS011;69727;53.132;8.230;2024-01-10T08:52:40;30.13;;;10.20;;
80400;SDS011;69727;53.132;8.230;2024-01-10T08:55:06;33.50;;;10.30;;
80400;SDS011;69727;53.132;8.230;2024-01-10T08:57:32;32.65;;;11.70;;
80400;SDS011;69727;53.132;8.230;2024-01-10T08:59:58;24.45;;;9.90;;
80400;SDS011;69727;53.132;8.230;2024-01-10T09:02:23;32.00;;;11.45;;
80400;SDS011;69727;53.132;8.230;2024-01-10T09:04:49;27.50;;;11.05;;
80400;SDS011;69727;53.132;8.230;2024-01-10T09:07:15;26.27;;;10.40;;
80400;SDS011;69727;53.132;8.230;2024-01-10T09:09:42;28.33;;;10.90;;
80400;SDS011;69727;53.132;8.230;2024-01-10T09:12:08;27.05;;;10.02;;
80400;SDS011;69727;53.132;8.230;2024-01-10T09:14:34;32.28;;;10.73;;
80400;SDS011;69727;53.132;8.230;2024-01-10T09:16:59;31.88;;;12.20;;
80400;SDS011;69727;53.132;8.230;2024-01-10T09:19:28;28.75;;;10.48;;
80400;SDS011;69727;53.132;8.230;2024-01-10T09:21:54;27.77;;;9.82;;
80400;SDS011;69727;53.132;8.230;2024-01-10T09:24:21;26.60;;;9.65;;
80400;SDS011;69727;53.132;8.230;2024-01-10T09:26:49;30.90;;;10.27;;
80400;SDS011;69727;53.132;8.230;2024-01-10T09:29:15;27.85;;;10.43;;
80400;SDS011;69727;53.132;8.230;2024-01-10T09:31:40;25.33;;;9.85;;
80400;SDS011;69727;53.132;8.230;2024-01-10T09:34:06;26.45;;;9.80;;
80400;SDS011;69727;53.132;8.230;2024-01-10T09:36:31;25.80;;;9.15;;
80400;SDS011;69727;53.132;8.230;2024-01-10T09:38:57;29.67;;;10.10;;
80400;SDS011;69727;53.132;8.230;2024-01-10T09:41:22;24.03;;;9.70;;
80400;SDS011;69727;53.132;8.230;2024-01-10T09:43:49;24.88;;;9.93;;
80400;SDS011;69727;53.132;8.230;2024-01-10T09:46:14;23.92;;;9.15;;
80400;SDS011;69727;53.132;8.230;2024-01-10T09:48:43;23.30;;;9.15;;
80400;SDS011;69727;53.132;8.230;2024-01-10T09:51:08;24.25;;;9.15;;
80400;SDS011;69727;53.132;8.230;2024-01-10T09:53:35;26.35;;;10.13;;
80400;SDS011;69727;53.132;8.230;2024-01-10T09:56:06;27.73;;;9.73;;
80400;SDS011;69727;53.132;8.230;2024-01-10T09:58:33;24.55;;;8.55;;
80400;SDS011;69727;53.132;8.230;2024-01-10T10:01:04;19.52;;;9.32;;
80400;SDS011;69727;53.132;8.230;2024-01-10T10:03:30;20.88;;;8.25;;
80400;SDS011;69727;53.132;8.230;2024-01-10T10:05:58;18.88;;;7.30;;
80400;SDS011;69727;53.132;8.230;2024-01-10T10:08:25;23.33;;;9.38;;
80400;SDS011;69727;53.132;8.230;2024-01-10T10:10:50;21.10;;;8.15;;
80400;SDS011;69727;53.132;8.230;2024-01-10T10:13:26;21.85;;;9.27;;
80400;SDS011;69727;53.132;8.230;2024-01-10T10:18:28;22.42;;;8.88;;
80400;SDS011;69727;53.132;8.230;2024-01-10T10:23:34;18.73;;;7.25;;
80400;SDS011;69727;53.132;8.230;2024-01-10T10:26:09;21.30;;;8.02;;
80400;SDS011;69727;53.132;8.230;2024-01-10T10:28:49;21.10;;;8.18;;
80400;SDS011;69727;53.132;8.230;2024-01-10T10:31:17;16.73;;;6.80;;
80400;SDS011;69727;53.132;8.230;2024-01-10T10:33:43;21.60;;;8.52;;
80400;SDS011;69727;53.132;8.230;2024-01-10T10:36:09;17.38;;;7.32;;
80400;SDS011;69727;53.132;8.230;2024-01-10T10:38:35;18.77;;;7.47;;
80400;SDS011;69727;53.132;8.230;2024-01-10T10:41:04;19.48;;;8.13;;
80400;SDS011;69727;53.132;8.230;2024-01-10T10:43:35;20.70;;;7.45;;
80400;SDS011;69727;53.132;8.230;2024-01-10T10:46:02;20.05;;;7.28;;
80400;SDS011;69727;53.132;8.230;2024-01-10T10:48:30;14.68;;;6.72;;
80400;SDS011;69727;53.132;8.230;2024-01-10T10:53:34;18.42;;;7.22;;
80400;SDS011;69727;53.132;8.230;2024-01-10T10:56:02;16.77;;;6.93;;
80400;SDS011;69727;53.132;8.230;2024-01-10T10:58:31;18.15;;;7.07;;
80400;SDS011;69727;53.132;8.230;2024-01-10T11:01:04;19.00;;;7.00;;
80400;SDS011;69727;53.132;8.230;2024-01-10T11:03:31;19.10;;;7.57;;
80400;SDS011;69727;53.132;8.230;2024-01-10T11:05:59;16.17;;;7.20;;
80400;SDS011;69727;53.132;8.230;2024-01-10T11:08:26;16.38;;;6.68;;
80400;SDS011;69727;53.132;8.230;2024-01-10T11:10:54;16.05;;;6.22;;
80400;SDS011;69727;53.132;8.230;2024-01-10T11:18:58;17.20;;;6.15;;
80400;SDS011;69727;53.132;8.230;2024-01-10T11:24:58;15.68;;;6.75;;
80400;SDS011;69727;53.132;8.230;2024-01-10T11:27:24;15.27;;;6.55;;
80400;SDS011;69727;53.132;8.230;2024-01-10T11:29:51;16.00;;;6.18;;
80400;SDS011;69727;53.132;8.230;2024-01-10T11:32:17;18.23;;;6.53;;
80400;SDS011;69727;53.132;8.230;2024-01-10T11:37:38;16.42;;;6.57;;
80400;SDS011;69727;53.132;8.230;2024-01-10T11:40:07;14.40;;;6.65;;
80400;SDS011;69727;53.132;8.230;2024-01-10T11:42:40;14.95;;;6.57;;
80400;SDS011;69727;53.132;8.230;2024-01-10T11:47:56;16.55;;;6.68;;
80400;SDS011;69727;53.132;8.230;2024-01-10T11:50:22;15.00;;;6.57;;
80400;SDS011;69727;53.132;8.230;2024-01-10T11:52:52;17.45;;;7.07;;
80400;SDS011;69727;53.132;8.230;2024-01-10T11:58:12;15.43;;;5.82;;
80400;SDS011;69727;53.132;8.230;2024-01-10T12:00:38;16.75;;;5.50;;
80400;SDS011;69727;53.132;8.230;2024-01-10T12:03:04;15.27;;;6.85;;
80400;SDS011;69727;53.132;8.230;2024-01-10T12:05:29;14.18;;;5.93;;
80400;SDS011;69727;53.132;8.230;2024-01-10T12:07:55;13.57;;;5.70;;
80400;SDS011;69727;53.132;8.230;2024-01-10T12:10:20;14.10;;;5.43;;
80400;SDS011;69727;53.132;8.230;2024-01-10T12:12:46;11.15;;;5.18;;
80400;SDS011;69727;53.132;8.230;2024-01-10T12:15:11;12.43;;;5.90;;
80400;SDS011;69727;53.132;8.230;2024-01-10T12:17:37;17.17;;;6.70;;
80400;SDS011;69727;53.132;8.230;2024-01-10T12:20:03;16.83;;;6.80;;
80400;SDS011;69727;53.132;8.230;2024-01-10T12:22:28;15.18;;;6.65;;
80400;SDS011;69727;53.132;8.230;2024-01-10T12:24:56;12.50;;;5.65;;
80400;SDS011;69727;53.132;8.230;2024-01-10T12:27:29;14.10;;;5.10;;
80400;SDS011;69727;53.132;8.230;2024-01-10T12:29:59;15.57;;;5.32;;
80400;SDS011;69727;53.132;8.230;2024-01-10T12:32:28;12.50;;;4.90;;
80400;SDS011;69727;53.132;8.230;2024-01-10T12:35:00;12.15;;;4.97;;
80400;SDS011;69727;53.132;8.230;2024-01-10T12:37:27;14.20;;;5.30;;
80400;SDS011;69727;53.132;8.230;2024-01-10T12:39:52;10.68;;;5.30;;
80400;SDS011;69727;53.132;8.230;2024-01-10T12:42:18;12.95;;;4.80;;
80400;SDS011;69727;53.132;8.230;2024-01-10T12:44:44;11.77;;;5.00;;
80400;SDS011;69727;53.132;8.230;2024-01-10T12:47:17;18.83;;;5.40;;
80400;SDS011;69727;53.132;8.230;2024-01-10T12:49:44;11.57;;;4.65;;
80400;SDS011;69727;53.132;8.230;2024-01-10T12:52:10;12.63;;;4.23;;
80400;SDS011;69727;53.132;8.230;2024-01-10T12:54:38;11.13;;;4.90;;
80400;SDS011;69727;53.132;8.230;2024-01-10T12:57:04;11.10;;;4.07;;
80400;SDS011;69727;53.132;8.230;2024-01-10T12:59:29;10.02;;;4.25;;
80400;SDS011;69727;53.132;8.230;2024-01-10T13:01:55;12.73;;;4.60;;
80400;SDS011;69727;53.132;8.230;2024-01-10T13:04:22;11.32;;;4.88;;
80400;SDS011;69727;53.132;8.230;2024-01-10T13:06:48;9.73;;;4.18;;
80400;SDS011;69727;53.132;8.230;2024-01-10T13:09:13;11.13;;;4.35;;
80400;SDS011;69727;53.132;8.230;2024-01-10T13:11:39;11.75;;;4.97;;
80400;SDS011;69727;53.132;8.230;2024-01-10T13:14:04;10.82;;;5.43;;
80400;SDS011;69727;53.132;8.230;2024-01-10T13:16:29;12.80;;;5.70;;
80400;SDS011;69727;53.132;8.230;2024-01-10T13:18:55;16.90;;;5.88;;
80400;SDS011;69727;53.132;8.230;2024-01-10T13:21:22;13.55;;;5.65;;
80400;SDS011;69727;53.132;8.230;2024-01-10T13:23:48;13.70;;;6.10;;
80400;SDS011;69727;53.132;8.230;2024-01-10T13:26:13;12.30;;;5.63;;
80400;SDS011;69727;53.132;8.230;2024-01-10T13:28:38;15.80;;;6.75;;
80400;SDS011;69727;53.132;8.230;2024-01-10T13:31:05;13.88;;;5.35;;
80400;SDS011;69727;53.132;8.230;2024-01-10T13:33:31;12.25;;;5.40;;
80400;SDS011;69727;53.132;8.230;2024-01-10T13:36:07;11.93;;;5.40;;
80400;SDS011;69727;53.132;8.230;2024-01-10T13:38:33;12.98;;;6.28;;
80400;SDS011;69727;53.132;8.230;2024-01-10T13:41:00;12.82;;;5.47;;
80400;SDS011;69727;53.132;8.230;2024-01-10T13:43:26;12.60;;;5.55;;
80400;SDS011;69727;53.132;8.230;2024-01-10T13:45:52;14.32;;;6.75;;
80400;SDS011;69727;53.132;8.230;2024-01-10T13:48:18;13.40;;;5.80;;
80400;SDS011;69727;53.132;8.230;2024-01-10T13:50:44;14.67;;;6.70;;
80400;SDS011;69727;53.132;8.230;2024-01-10T13:53:11;15.38;;;6.28;;
80400;SDS011;69727;53.132;8.230;2024-01-10T13:55:39;13.70;;;6.10;;
80400;SDS011;69727;53.132;8.230;2024-01-10T13:58:07;13.95;;;6.72;;
80400;SDS011;69727;53.132;8.230;2024-01-10T14:00:33;14.02;;;6.47;;
80400;SDS011;69727;53.132;8.230;2024-01-10T14:02:58;13.25;;;6.40;;
80400;SDS011;69727;53.132;8.230;2024-01-10T14:05:27;15.50;;;7.32;;
80400;SDS011;69727;53.132;8.230;2024-01-10T14:07:53;14.32;;;5.97;;
80400;SDS011;69727;53.132;8.230;2024-01-10T14:10:18;16.17;;;6.22;;
80400;SDS011;69727;53.132;8.230;2024-01-10T14:12:44;14.10;;;6.45;;
80400;SDS011;69727;53.132;8.230;2024-01-10T14:15:10;16.27;;;6.90;;
80400;SDS011;69727;53.132;8.230;2024-01-10T14:17:36;16.13;;;6.35;;
80400;SDS011;69727;53.132;8.230;2024-01-10T14:20:01;14.63;;;6.18;;
80400;SDS011;69727;53.132;8.230;2024-01-10T14:22:27;14.75;;;6.90;;
80400;SDS011;69727;53.132;8.230;2024-01-10T14:24:53;15.32;;;6.20;;
80400;SDS011;69727;53.132;8.230;2024-01-10T14:27:22;17.20;;;6.05;;
80400;SDS011;69727;53.132;8.230;2024-01-10T14:29:47;14.68;;;6.38;;
80400;SDS011;69727;53.132;8.230;2024-01-10T14:32:13;14.77;;;6.28;;
80400;SDS011;69727;53.132;8.230;2024-01-10T14:34:39;18.42;;;6.70;;
80400;SDS011;69727;53.132;8.230;2024-01-10T14:37:05;16.30;;;7.20;;
80400;SDS011;69727;53.132;8.230;2024-01-10T14:39:32;15.77;;;6.70;;
80400;SDS011;69727;53.132;8.230;2024-01-10T14:41:58;17.60;;;7.38;;
80400;SDS011;69727;53.132;8.230;2024-01-10T14:44:23;16.58;;;6.72;;
80400;SDS011;69727;53.132;8.230;2024-01-10T14:46:49;17.00;;;7.53;;
80400;SDS011;69727;53.132;8.230;2024-01-10T14:49:14;18.33;;;7.03;;
80400;SDS011;69727;53.132;8.230;2024-01-10T14:51:40;18.23;;;8.02;;
80400;SDS011;69727;53.132;8.230;2024-01-10T14:54:05;16.77;;;7.40;;
80400;SDS011;69727;53.132;8.230;2024-01-10T14:56:30;17.52;;;7.13;;
80400;SDS011;69727;53.132;8.230;2024-01-10T14:58:56;15.73;;;7.73;;
80400;SDS011;69727;53.132;8.230;2024-01-10T15:01:21;17.67;;;7.82;;
80400;SDS011;69727;53.132;8.230;2024-01-10T15:03:47;15.43;;;7.00;;
80400;SDS011;69727;53.132;8.230;2024-01-10T15:06:15;16.07;;;6.67;;
80400;SDS011;69727;53.132;8.230;2024-01-10T15:08:42;18.85;;;7.68;;
80400;SDS011;69727;53.132;8.230;2024-01-10T15:11:08;15.87;;;7.50;;
80400;SDS011;69727;53.132;8.230;2024-01-10T15:13:36;19.83;;;8.10;;
80400;SDS011;69727;53.132;8.230;2024-01-10T15:16:02;20.73;;;9.65;;
80400;SDS011;69727;53.132;8.230;2024-01-10T15:18:28;18.63;;;8.15;;
80400;SDS011;69727;53.132;8.230;2024-01-10T15:20:53;21.67;;;8.45;;
80400;SDS011;69727;53.132;8.230;2024-01-10T15:23:19;19.27;;;7.80;;
80400;SDS011;69727;53.132;8.230;2024-01-10T15:25:45;19.42;;;9.32;;
80400;SDS011;69727;53.132;8.230;2024-01-10T15:28:10;23.95;;;10.77;;
80400;SDS011;69727;53.132;8.230;2024-01-10T15:30:35;24.92;;;11.15;;
80400;SDS011;69727;53.132;8.230;2024-01-10T15:33:01;24.00;;;10.65;;
80400;SDS011;69727;53.132;8.230;2024-01-10T15:35:27;22.33;;;9.63;;
80400;SDS011;69727;53.132;8.230;2024-01-10T15:37:52;20.13;;;9.13;;
80400;SDS011;69727;53.132;8.230;2024-01-10T16:30:52;16.20;;;7.53;;
80400;SDS011;69727;53.132;8.230;2024-01-10T16:33:44;17.35;;;7.63;;
80400;SDS011;69727;53.132;8.230;2024-01-10T16:36:10;17.00;;;7.75;;
80400;SDS011;69727;53.132;8.230;2024-01-10T16:38:38;16.52;;;7.93;;
80400;SDS011;69727;53.132;8.230;2024-01-10T16:41:08;15.27;;;8.02;;
80400;SDS011;69727;53.132;8.230;2024-01-10T17:28:24;18.88;;;9.40;;
80400;SDS011;69727;53.132;8.230;2024-01-10T18:03:22;27.20;;;14.13;;
80400;SDS011;69727;53.132;8.230;2024-01-10T18:05:47;27.02;;;12.48;;
80400;SDS011;69727;53.132;8.230;2024-01-10T18:08:13;25.38;;;12.82;;
80400;SDS011;69727;53.132;8.230;2024-01-10T18:10:41;22.98;;;11.32;;
80400;SDS011;69727;53.132;8.230;2024-01-10T18:13:11;23.65;;;11.48;;
80400;SDS011;69727;53.132;8.230;2024-01-10T18:15:41;22.08;;;10.75;;
80400;SDS011;69727;53.132;8.230;2024-01-10T18:18:13;24.67;;;11.32;;
80400;SDS011;69727;53.132;8.230;2024-01-10T18:20:42;20.67;;;9.73;;
80400;SDS011;69727;53.132;8.230;2024-01-10T18:23:08;25.48;;;10.48;;
80400;SDS011;69727;53.132;8.230;2024-01-10T18:25:34;21.58;;;10.45;;
80400;SDS011;69727;53.132;8.230;2024-01-10T18:28:03;19.55;;;11.02;;
80400;SDS011;69727;53.132;8.230;2024-01-10T18:30:47;24.88;;;10.75;;
80400;SDS011;69727;53.132;8.230;2024-01-10T18:33:17;23.05;;;10.65;;
80400;SDS011;69727;53.132;8.230;2024-01-10T18:35:50;25.83;;;11.80;;
80400;SDS011;69727;53.132;8.230;2024-01-10T18:38:18;23.30;;;10.95;;
80400;SDS011;69727;53.132;8.230;2024-01-10T18:40:47;28.43;;;11.07;;
80400;SDS011;69727;53.132;8.230;2024-01-10T18:43:14;25.33;;;11.82;;
80400;SDS011;69727;53.132;8.230;2024-01-10T18:45:40;23.67;;;11.85;;
80400;SDS011;69727;53.132;8.230;2024-01-10T18:48:06;24.85;;;11.48;;
80400;SDS011;69727;53.132;8.230;2024-01-10T18:50:32;24.73;;;11.45;;
80400;SDS011;69727;53.132;8.230;2024-01-10T18:52:57;26.80;;;11.82;;
80400;SDS011;69727;53.132;8.230;2024-01-10T18:55:23;25.35;;;10.98;;
80400;SDS011;69727;53.132;8.230;2024-01-10T18:57:49;27.15;;;12.32;;
80400;SDS011;69727;53.132;8.230;2024-01-10T19:00:17;23.17;;;11.43;;
80400;SDS011;69727;53.132;8.230;2024-01-10T19:02:48;22.95;;;11.30;;
80400;SDS011;69727;53.132;8.230;2024-01-10T19:05:14;23.13;;;11.05;;
80400;SDS011;69727;53.132;8.230;2024-01-10T19:13:34;21.25;;;10.07;;
80400;SDS011;69727;53.132;8.230;2024-01-10T19:45:13;27.98;;;12.00;;
80400;SDS011;69727;53.132;8.230;2024-01-10T19:47:39;24.92;;;10.85;;
80400;SDS011;69727;53.132;8.230;2024-01-10T19:50:04;25.85;;;11.23;;
80400;SDS011;69727;53.132;8.230;2024-01-10T19:52:33;26.50;;;11.18;;
80400;SDS011;69727;53.132;8.230;2024-01-10T19:54:58;24.87;;;11.37;;
80400;SDS011;69727;53.132;8.230;2024-01-10T19:57:39;29.73;;;11.70;;
80400;SDS011;69727;53.132;8.230;2024-01-10T20:00:05;29.10;;;12.40;;
80400;SDS011;69727;53.132;8.230;2024-01-10T20:02:32;28.63;;;12.60;;
80400;SDS011;69727;53.132;8.230;2024-01-10T20:05:00;28.15;;;13.07;;
80400;SDS011;69727;53.132;8.230;2024-01-10T20:07:25;28.35;;;11.27;;
80400;SDS011;69727;53.132;8.230;2024-01-10T20:09:52;30.15;;;12.80;;
80400;SDS011;69727;53.132;8.230;2024-01-10T20:12:17;28.92;;;12.35;;
80400;SDS011;69727;53.132;8.230;2024-01-10T20:14:48;29.80;;;12.93;;
80400;SDS011;69727;53.132;8.230;2024-01-10T20:17:13;26.95;;;11.73;;
80400;SDS011;69727;53.132;8.230;2024-01-10T20:19:41;26.25;;;11.98;;
80400;SDS011;69727;53.132;8.230;2024-01-10T20:22:06;28.73;;;11.88;;
80400;SDS011;69727;53.132;8.230;2024-01-10T20:24:31;23.90;;;11.20;;
80400;SDS011;69727;53.132;8.230;2024-01-10T20:26:57;29.90;;;11.95;;
80400;SDS011;69727;53.132;8.230;2024-01-10T20:29:22;26.55;;;12.23;;
80400;SDS011;69727;53.132;8.230;2024-01-10T20:31:48;27.73;;;11.15;;
80400;SDS011;69727;53.132;8.230;2024-01-10T20:34:13;25.83;;;12.10;;
80400;SDS011;69727;53.132;8.230;2024-01-10T20:36:40;30.25;;;12.23;;
80400;SDS011;69727;53.132;8.230;2024-01-10T20:39:06;31.63;;;12.40;;
80400;SDS011;69727;53.132;8.230;2024-01-10T20:41:31;32.15;;;13.75;;
80400;SDS011;69727;53.132;8.230;2024-01-10T20:43:57;29.90;;;12.88;;
80400;SDS011;69727;53.132;8.230;2024-01-10T20:46:22;32.67;;;13.07;;
80400;SDS011;69727;53.132;8.230;2024-01-10T20:48:47;29.10;;;11.85;;
80400;SDS011;69727;53.132;8.230;2024-01-10T20:51:14;27.48;;;11.13;;
80400;SDS011;69727;53.132;8.230;2024-01-10T20:53:39;29.63;;;11.37;;
80400;SDS011;69727;53.132;8.230;2024-01-10T20:56:05;26.85;;;11.65;;
80400;SDS011;69727;53.132;8.230;2024-01-10T20:58:31;28.92;;;11.48;;
80400;SDS011;69727;53.132;8.230;2024-01-10T21:00:56;26.10;;;11.63;;
80400;SDS011;69727;53.132;8.230;2024-01-10T21:03:23;29.65;;;11.73;;
80400;SDS011;69727;53.132;8.230;2024-01-10T21:05:53;27.38;;;12.00;;
80400;SDS011;69727;53.132;8.230;2024-01-10T21:08:19;32.33;;;13.23;;
80400;SDS011;69727;53.132;8.230;2024-01-10T21:10:44;29.90;;;11.83;;
80400;SDS011;69727;53.132;8.230;2024-01-10T21:13:11;28.08;;;12.20;;
80400;SDS011;69727;53.132;8.230;2024-01-10T21:15:36;27.75;;;11.68;;